Time;durP1;ratioP1;P1;durP2;ratioP2;P2;SDS_P1;SDS_P2;PMS_P1;PMS_P2;Temp;Humidity;BMP_temperature;BMP_pressure;BME280_temperature;BME280_humidity;BME280_pressure;Samples;Min_cycle;Max_cycle;Signal;HPM_P1;HPM_P2
2022/10/18 00:01:30;;;;;;;0.10;0.10;;;14.10;99.90;;;;;;5032486;28;20025;-75
2022/10/18 00:03:56;;;;;;;0.10;0.10;;;14.10;99.90;;;;;;5014823;28;20030;-75
2022/10/18 00:06:22;;;;;;;0.10;0.10;;;13.90;99.90;;;;;;4998214;28;20389;-75
2022/10/18 00:08:47;;;;;;;0.10;0.10;;;13.90;99.90;;;;;;5014913;28;20028;-75
2022/10/18 00:11:13;;;;;;;0.30;0.30;;;13.90;99.90;;;;;;5014834;28;20038;-75
2022/10/18 00:13:39;;;;;;;0.30;0.30;;;13.90;99.90;;;;;;5013708;28;20143;-75
2022/10/18 00:16:10;;;;;;;0.10;0.10;;;13.90;99.90;;;;;;4998120;28;20381;-75
2022/10/18 00:18:36;;;;;;;4.50;4.18;;;13.80;99.90;;;;;;5032436;28;20608;-75
2022/10/18 00:21:14;;;;;;;0.20;0.20;;;13.90;99.90;;;;;;5014698;28;20116;-75
2022/10/18 00:23:40;;;;;;;0.15;0.15;;;13.80;99.90;;;;;;5014732;28;20024;-75
2022/10/18 00:26:11;;;;;;;0.40;0.40;;;13.70;99.90;;;;;;5031885;28;20474;-75
2022/10/18 00:28:37;;;;;;;3.72;1.45;;;13.70;99.90;;;;;;5032248;28;20029;-75
2022/10/18 00:31:23;;;;;;;0.20;0.20;;;13.80;99.90;;;;;;5014478;28;20025;-75
2022/10/18 00:33:54;;;;;;;0.20;0.20;;;13.80;99.90;;;;;;5031996;28;20037;-75
2022/10/18 00:36:21;;;;;;;0.10;0.10;;;13.80;99.90;;;;;;5032083;28;20056;-75
2022/10/18 00:38:47;;;;;;;0.10;0.10;;;13.90;99.90;;;;;;5032248;28;20025;-75
2022/10/18 00:41:17;;;;;;;0.10;0.10;;;14.00;99.90;;;;;;5032389;28;20025;-75
2022/10/18 00:44:09;;;;;;;0.10;0.10;;;14.10;99.90;;;;;;5032443;28;20041;-75
2022/10/18 00:46:40;;;;;;;0.13;0.13;;;14.20;99.90;;;;;;5032365;28;20036;-75
2022/10/18 00:49:14;;;;;;;0.20;0.20;;;14.20;99.90;;;;;;5035123;28;20026;-75
2022/10/18 00:51:47;;;;;;;3.60;0.47;;;14.10;99.90;;;;;;5015849;28;20022;-75
2022/10/18 00:54:15;;;;;;;0.20;0.20;;;13.90;99.90;;;;;;4996879;23;20057;-76
2022/10/18 00:56:43;;;;;;;0.30;0.30;;;13.90;99.90;;;;;;4974773;28;20023;-75
2022/10/18 00:59:12;;;;;;;0.10;0.10;;;13.90;99.90;;;;;;4992430;28;20102;-76
2022/10/18 01:01:38;;;;;;;0.20;0.20;;;13.90;99.90;;;;;;4992402;28;20501;-76
2022/10/18 01:04:04;;;;;;;0.55;0.55;;;13.80;99.90;;;;;;4974905;28;20027;-76
2022/10/18 01:06:30;;;;;;;0.10;0.10;;;13.70;99.90;;;;;;4992543;28;20022;-76
2022/10/18 01:09:11;;;;;;;0.20;0.20;;;13.80;99.90;;;;;;4991263;28;20054;-76
2022/10/18 01:12:05;;;;;;;0.30;0.30;;;13.70;99.90;;;;;;4992084;28;20077;-75
2022/10/18 01:14:35;;;;;;;0.40;0.40;;;13.60;99.90;;;;;;4974861;28;20089;-76
2022/10/18 01:17:19;;;;;;;0.30;0.30;;;13.50;99.90;;;;;;4992157;28;20022;-76
2022/10/18 01:20:21;;;;;;;0.30;0.30;;;13.50;99.90;;;;;;4992400;28;20505;-76
2022/10/18 01:22:54;;;;;;;0.20;0.20;;;13.40;99.90;;;;;;4992248;28;20037;-76
2022/10/18 01:25:30;;;;;;;0.30;0.30;;;13.30;99.90;;;;;;4978482;28;20034;-76
2022/10/18 01:28:08;;;;;;;0.30;0.30;;;13.20;99.90;;;;;;4994955;28;20117;-76
2022/10/18 01:30:44;;;;;;;1.95;0.57;;;12.90;99.90;;;;;;4978717;28;20030;-76
2022/10/18 01:33:29;;;;;;;1.70;1.60;;;12.80;99.90;;;;;;4995957;28;20105;-76
2022/10/18 01:36:23;;;;;;;0.20;0.20;;;12.70;99.90;;;;;;4978483;28;20076;-76
2022/10/18 01:38:54;;;;;;;0.73;0.73;;;12.70;99.90;;;;;;4996021;28;20026;-75
2022/10/18 01:41:22;;;;;;;0.20;0.20;;;12.60;99.90;;;;;;4978508;28;20102;-76
2022/10/18 01:43:53;;;;;;;0.60;0.60;;;12.70;99.90;;;;;;4995932;28;20497;-76
2022/10/18 01:46:23;;;;;;;0.45;0.40;;;12.50;99.90;;;;;;4995649;28;20027;-76
2022/10/18 01:48:50;;;;;;;0.50;0.50;;;12.40;99.90;;;;;;4962325;28;20429;-76
2022/10/18 01:51:25;;;;;;;1.00;1.00;;;12.50;99.90;;;;;;4978145;28;20052;-76
2022/10/18 01:53:51;;;;;;;0.10;0.10;;;12.60;99.90;;;;;;4994206;28;20528;-76
2022/10/18 01:56:26;;;;;;;0.20;0.20;;;12.70;99.90;;;;;;4995437;28;20027;-76
2022/10/18 01:59:31;;;;;;;0.13;0.13;;;12.70;99.90;;;;;;4994460;28;20054;-76
2022/10/18 02:02:06;;;;;;;0.20;0.20;;;12.80;99.90;;;;;;4972527;28;20105;-76
2022/10/18 02:05:00;;;;;;;0.10;0.10;;;12.90;99.90;;;;;;4977931;28;20109;-76
2022/10/18 02:07:41;;;;;;;0.20;0.20;;;13.00;99.90;;;;;;4995502;28;20073;-76
2022/10/18 02:10:34;;;;;;;0.15;0.15;;;13.10;99.90;;;;;;4995408;28;20026;-76
2022/10/18 02:13:00;;;;;;;0.20;0.20;;;13.10;99.90;;;;;;4969716;28;20037;-76
2022/10/18 02:15:34;;;;;;;0.10;0.10;;;13.00;99.90;;;;;;4995060;28;20482;-76
2022/10/18 02:18:04;;;;;;;0.40;0.40;;;12.90;99.90;;;;;;4995197;28;20041;-76
2022/10/18 02:20:31;;;;;;;0.10;0.10;;;13.00;99.90;;;;;;4977766;28;20375;-76
2022/10/18 02:22:59;;;;;;;0.20;0.20;;;13.10;99.90;;;;;;4995204;28;20301;-76
2022/10/18 02:25:27;;;;;;;0.55;0.55;;;13.10;99.90;;;;;;4977505;28;20493;-76
2022/10/18 02:27:54;;;;;;;0.20;0.20;;;13.10;99.90;;;;;;4995474;28;20414;-76
2022/10/18 02:30:27;;;;;;;0.20;0.20;;;13.20;99.90;;;;;;4994934;28;20030;-76
2022/10/18 02:33:06;;;;;;;0.20;0.20;;;13.40;99.90;;;;;;4993787;28;20642;-77
2022/10/18 02:35:37;;;;;;;0.15;0.15;;;13.50;99.90;;;;;;4992742;28;20394;-77
2022/10/18 02:38:06;;;;;;;0.20;0.20;;;13.70;99.90;;;;;;4977417;28;20027;-76
2022/10/18 02:40:32;;;;;;;0.60;0.60;;;13.80;99.90;;;;;;4977400;28;20037;-77
2022/10/18 02:42:58;;;;;;;4.07;1.25;;;13.50;99.90;;;;;;4977219;28;20038;-76
2022/10/18 02:45:25;;;;;;;0.25;0.25;;;13.30;99.90;;;;;;4994507;28;20026;-77
2022/10/18 02:47:51;;;;;;;0.20;0.20;;;13.10;99.90;;;;;;4994695;28;20029;-76
2022/10/18 02:50:17;;;;;;;0.30;0.30;;;13.00;99.90;;;;;;4994738;28;20486;-76
2022/10/18 02:52:43;;;;;;;0.22;0.22;;;12.90;99.90;;;;;;4994469;28;20116;-76
2022/10/18 02:55:09;;;;;;;0.20;0.20;;;12.80;99.90;;;;;;4994286;28;20504;-76
2022/10/18 02:57:36;;;;;;;0.10;0.10;;;12.80;99.90;;;;;;4994503;28;20038;-76
2022/10/18 03:00:04;;;;;;;0.10;0.10;;;13.00;99.90;;;;;;4993285;28;20022;-77
2022/10/18 03:02:29;;;;;;;0.20;0.20;;;13.00;99.90;;;;;;4994361;28;20064;-76
2022/10/18 03:04:55;;;;;;;0.20;0.20;;;13.10;99.90;;;;;;4976766;28;20480;-76
2022/10/18 03:07:21;;;;;;;0.40;0.40;;;13.10;99.90;;;;;;4993128;28;20027;-76
2022/10/18 03:09:47;;;;;;;0.25;0.25;;;13.10;99.90;;;;;;4993042;28;20053;-76
2022/10/18 03:12:12;;;;;;;0.20;0.20;;;12.80;99.90;;;;;;4976639;28;20512;-76
2022/10/18 03:14:38;;;;;;;0.20;0.20;;;12.80;99.90;;;;;;4976574;28;20034;-76
2022/10/18 03:17:04;;;;;;;0.30;0.30;;;12.80;99.90;;;;;;4994120;28;20437;-76
2022/10/18 03:19:30;;;;;;;0.20;0.20;;;12.70;99.90;;;;;;4992923;28;20105;-76
2022/10/18 03:21:55;;;;;;;0.20;0.20;;;12.60;99.90;;;;;;4994021;28;20045;-77
2022/10/18 03:24:21;;;;;;;0.15;0.15;;;12.50;99.90;;;;;;4960395;28;20386;-77
2022/10/18 03:26:47;;;;;;;0.20;0.20;;;12.50;99.90;;;;;;4993804;28;20026;-76
2022/10/18 03:29:13;;;;;;;0.10;0.10;;;12.50;99.90;;;;;;4976730;28;20025;-76
2022/10/18 03:31:38;;;;;;;0.20;0.20;;;12.50;99.90;;;;;;4992653;28;20033;-76
2022/10/18 03:34:04;;;;;;;0.17;0.17;;;12.50;99.90;;;;;;4976186;28;20042;-76
2022/10/18 03:36:32;;;;;;;1.15;1.05;;;12.50;99.90;;;;;;4959916;28;20033;-76
2022/10/18 03:38:58;;;;;;;19.00;2.45;;;12.50;99.90;;;;;;4992542;28;20393;-76
2022/10/18 03:41:24;;;;;;;0.20;0.20;;;12.50;99.90;;;;;;4976163;28;20023;-76
2022/10/18 03:43:49;;;;;;;0.20;0.20;;;12.50;99.90;;;;;;4976110;28;20029;-76
2022/10/18 03:46:15;;;;;;;0.20;0.20;;;12.50;99.90;;;;;;4975777;28;20406;-76
2022/10/18 03:48:41;;;;;;;0.10;0.10;;;12.50;99.90;;;;;;4975325;28;20569;-77
2022/10/18 03:51:07;;;;;;;0.20;0.20;;;12.40;99.90;;;;;;4993265;28;20049;-76
2022/10/18 03:53:32;;;;;;;0.20;0.20;;;12.60;99.90;;;;;;4975772;28;20057;-76
2022/10/18 03:55:58;;;;;;;0.20;0.20;;;12.80;99.90;;;;;;4975519;28;20035;-76
2022/10/18 03:58:24;;;;;;;0.20;0.20;;;13.00;99.90;;;;;;4993391;28;20478;-76
2022/10/18 04:00:51;;;;;;;0.15;0.15;;;13.10;99.90;;;;;;4993337;28;20042;-76
2022/10/18 04:03:18;;;;;;;0.10;0.10;;;12.90;99.90;;;;;;4959644;28;20553;-77
2022/10/18 04:05:45;;;;;;;2.47;2.38;;;12.90;99.90;;;;;;4975674;28;20022;-76
2022/10/18 04:08:11;;;;;;;0.20;0.20;;;12.90;99.90;;;;;;4993468;28;20030;-76
2022/10/18 04:10:38;;;;;;;0.20;0.20;;;12.70;99.90;;;;;;4975592;28;20030;-77
2022/10/18 04:13:05;;;;;;;2.80;2.00;;;12.70;99.90;;;;;;4992981;28;20034;-76
2022/10/18 04:15:31;;;;;;;0.10;0.10;;;12.70;99.90;;;;;;4992775;28;20054;-76
2022/10/18 04:17:57;;;;;;;0.20;0.20;;;12.80;99.90;;;;;;4992987;28;20339;-76
2022/10/18 04:20:23;;;;;;;0.15;0.15;;;12.70;99.90;;;;;;4975423;28;20026;-76
2022/10/18 04:22:50;;;;;;;0.10;0.10;;;12.70;99.90;;;;;;4975669;28;20390;-76
2022/10/18 04:25:16;;;;;;;0.20;0.20;;;12.60;99.90;;;;;;4975174;28;20033;-76
2022/10/18 04:27:42;;;;;;;0.20;0.20;;;12.60;99.90;;;;;;4992864;28;20037;-76
2022/10/18 04:30:08;;;;;;;0.20;0.20;;;12.50;99.90;;;;;;4992859;28;20089;-76
2022/10/18 04:32:34;;;;;;;0.15;0.15;;;12.50;99.90;;;;;;4991801;28;20023;-77
2022/10/18 04:35:01;;;;;;;0.20;0.20;;;12.60;99.90;;;;;;4974963;28;20042;-76
2022/10/18 04:37:27;;;;;;;0.20;0.20;;;12.40;99.90;;;;;;4975296;28;20022;-76
2022/10/18 04:39:53;;;;;;;0.38;0.38;;;12.30;99.90;;;;;;4992670;28;20517;-76
2022/10/18 04:42:18;;;;;;;0.10;0.10;;;12.40;99.90;;;;;;4992582;28;20065;-76
2022/10/18 04:44:44;;;;;;;0.20;0.20;;;12.50;99.90;;;;;;4975276;28;20034;-76
2022/10/18 04:47:10;;;;;;;0.85;0.85;;;12.60;99.90;;;;;;4992772;28;20367;-76
2022/10/18 04:49:36;;;;;;;0.30;0.30;;;12.80;99.90;;;;;;4975004;28;20026;-76
2022/10/18 04:52:01;;;;;;;0.20;0.20;;;12.90;99.90;;;;;;4992615;28;20033;-76
2022/10/18 04:54:27;;;;;;;2.08;0.50;;;13.10;99.90;;;;;;4992312;28;20061;-76
2022/10/18 04:56:53;;;;;;;0.20;0.20;;;13.10;99.90;;;;;;4992347;28;20035;-76
2022/10/18 04:59:19;;;;;;;0.15;0.15;;;13.00;99.90;;;;;;4978994;28;20022;-77
2022/10/18 05:01:44;;;;;;;0.30;0.30;;;12.80;99.90;;;;;;4998973;28;20019;-78
2022/10/18 05:04:10;;;;;;;0.20;0.20;;;12.60;99.90;;;;;;4997716;28;20026;-76
2022/10/18 05:06:36;;;;;;;0.20;0.20;;;12.80;99.90;;;;;;4965142;28;20110;-76
2022/10/18 05:09:02;;;;;;;0.20;0.20;;;12.90;99.90;;;;;;4998901;28;20036;-76
2022/10/18 05:11:28;;;;;;;0.20;0.20;;;12.90;99.90;;;;;;4981305;28;20041;-76
2022/10/18 05:13:54;;;;;;;0.20;0.20;;;12.90;99.90;;;;;;4998552;28;20034;-76
2022/10/18 05:16:19;;;;;;;0.20;0.20;;;13.00;99.90;;;;;;4981282;28;20022;-76
2022/10/18 05:18:45;;;;;;;0.15;0.15;;;13.00;99.90;;;;;;4981515;28;20502;-76
2022/10/18 05:21:11;;;;;;;0.20;0.20;;;12.90;99.90;;;;;;4998796;28;20033;-76
2022/10/18 05:23:37;;;;;;;0.98;0.98;;;12.80;99.90;;;;;;4997661;28;20031;-76
2022/10/18 05:26:05;;;;;;;0.20;0.20;;;13.00;99.90;;;;;;4998512;28;20030;-76
2022/10/18 05:28:32;;;;;;;0.15;0.15;;;12.90;99.90;;;;;;4998730;28;20079;-76
2022/10/18 05:31:02;;;;;;;1.35;0.40;;;12.80;99.90;;;;;;4981175;28;20541;-76
2022/10/18 05:33:28;;;;;;;0.22;0.22;;;12.70;99.90;;;;;;4997347;28;20030;-76
2022/10/18 05:35:54;;;;;;;0.20;0.20;;;12.70;99.90;;;;;;4997260;28;20083;-76
2022/10/18 05:38:20;;;;;;;0.10;0.10;;;12.80;99.90;;;;;;4998943;28;20027;-77
2022/10/18 05:40:46;;;;;;;0.28;0.28;;;12.90;99.90;;;;;;4998525;28;20367;-76
2022/10/18 05:43:11;;;;;;;0.20;0.20;;;13.00;99.90;;;;;;4997264;28;20478;-76
2022/10/18 05:45:37;;;;;;;0.20;0.20;;;13.10;99.90;;;;;;4998182;28;20171;-77
2022/10/18 05:48:04;;;;;;;0.30;0.30;;;13.30;99.90;;;;;;4997204;28;20033;-76
2022/10/18 05:50:30;;;;;;;0.30;0.30;;;13.30;99.90;;;;;;4980882;28;20061;-76
2022/10/18 05:52:56;;;;;;;0.20;0.20;;;13.30;99.90;;;;;;4980748;28;20104;-76
2022/10/18 05:55:23;;;;;;;1.17;1.00;;;13.50;99.90;;;;;;4980529;28;20510;-76
2022/10/18 05:57:50;;;;;;;0.20;0.20;;;13.60;99.90;;;;;;4998662;28;20025;-77
2022/10/18 06:00:16;;;;;;;0.20;0.20;;;13.60;99.90;;;;;;4964747;28;20487;-76
2022/10/18 06:02:42;;;;;;;0.10;0.10;;;13.60;99.90;;;;;;4981153;28;20023;-77
2022/10/18 06:05:08;;;;;;;0.20;0.20;;;13.70;99.90;;;;;;4998333;28;20038;-77
2022/10/18 06:07:34;;;;;;;0.10;0.10;;;13.90;99.90;;;;;;4980936;28;20041;-77
2022/10/18 06:09:59;;;;;;;0.20;0.20;;;13.90;99.90;;;;;;4996428;28;20028;-77
2022/10/18 06:12:25;;;;;;;0.20;0.20;;;13.90;99.90;;;;;;4977538;28;20094;-77
2022/10/18 06:14:51;;;;;;;0.20;0.20;;;13.90;99.90;;;;;;4977641;28;20069;-77
2022/10/18 06:17:17;;;;;;;0.20;0.20;;;14.00;99.90;;;;;;4977524;28;20121;-77
2022/10/18 06:19:43;;;;;;;0.20;0.20;;;14.00;99.90;;;;;;4994969;28;20068;-77
2022/10/18 06:22:10;;;;;;;0.20;0.20;;;14.10;99.90;;;;;;4995032;28;20018;-77
2022/10/18 06:24:36;;;;;;;0.10;0.10;;;14.00;99.90;;;;;;4977645;28;20061;-77
2022/10/18 06:27:07;;;;;;;0.20;0.20;;;13.90;99.90;;;;;;4994857;28;20462;-77
2022/10/18 06:29:37;;;;;;;;;;;14.00;99.90;;;;;;4961842;28;20033;-77
2022/10/18 06:32:04;;;;;;;0.17;0.17;;;13.80;99.90;;;;;;4975754;28;19962;-77
2022/10/18 06:34:29;;;;;;;6.93;6.22;;;13.70;99.90;;;;;;4985191;28;20077;-77
2022/10/18 06:36:55;;;;;;;0.57;0.45;;;13.70;99.90;;;;;;5002972;28;20045;-77
2022/10/18 06:39:21;;;;;;;0.10;0.10;;;13.80;99.90;;;;;;5014378;28;20240;-77
2022/10/18 06:41:47;;;;;;;0.20;0.20;;;13.80;99.90;;;;;;5001036;28;20018;-77
2022/10/18 06:44:14;;;;;;;0.10;0.10;;;14.00;99.90;;;;;;4977105;28;20057;-77
2022/10/18 06:46:40;;;;;;;0.20;0.20;;;14.10;99.90;;;;;;4994401;28;20027;-77
2022/10/18 06:49:06;;;;;;;0.20;0.20;;;14.10;99.90;;;;;;4997646;28;20022;-77
2022/10/18 06:51:32;;;;;;;0.28;0.28;;;14.20;99.90;;;;;;4996474;28;20117;-77
2022/10/18 06:53:58;;;;;;;0.20;0.20;;;14.30;99.90;;;;;;4979991;28;20108;-77
2022/10/18 06:56:23;;;;;;;0.10;0.10;;;14.20;99.90;;;;;;4996176;28;20022;-77
2022/10/18 06:58:49;;;;;;;0.60;0.60;;;14.30;99.90;;;;;;5013784;28;20389;-77
2022/10/18 07:01:16;;;;;;;0.38;0.38;;;14.30;99.90;;;;;;5013855;28;20037;-77
2022/10/18 07:03:43;;;;;;;0.35;0.35;;;14.20;99.90;;;;;;4996174;28;20022;-77
2022/10/18 07:06:11;;;;;;;0.20;0.20;;;14.10;99.90;;;;;;4992677;28;20026;-76
2022/10/18 07:08:38;;;;;;;0.17;0.17;;;14.10;99.90;;;;;;4994330;28;20033;-77
2022/10/18 07:11:04;;;;;;;0.20;0.20;;;14.40;99.90;;;;;;4976459;28;20034;-77
2022/10/18 07:13:32;;;;;;;0.20;0.20;;;14.50;99.90;;;;;;4976370;28;20080;-77
2022/10/18 07:16:06;;;;;;;0.10;0.10;;;14.60;99.90;;;;;;4993658;28;20053;-77
2022/10/18 07:18:37;;;;;;;0.10;0.10;;;14.60;99.90;;;;;;4993961;28;20033;-77
2022/10/18 07:21:06;;;;;;;0.10;0.10;;;14.70;99.90;;;;;;4992592;28;20022;-77
2022/10/18 07:23:33;;;;;;;0.20;0.20;;;14.80;99.90;;;;;;4994189;28;20018;-77
2022/10/18 07:26:00;;;;;;;7.68;0.30;;;14.80;99.90;;;;;;4976020;28;20022;-77
2022/10/18 07:28:27;;;;;;;0.20;0.20;;;14.80;99.90;;;;;;4993678;28;20470;-76
2022/10/18 07:30:53;;;;;;;0.20;0.20;;;14.80;99.90;;;;;;4976909;28;20027;-77
2022/10/18 07:33:19;;;;;;;0.10;0.10;;;14.80;99.90;;;;;;4960545;28;20026;-77
2022/10/18 07:35:46;;;;;;;0.20;0.20;;;14.90;99.90;;;;;;4993394;28;20018;-77
2022/10/18 07:38:12;;;;;;;0.40;0.40;;;14.90;99.90;;;;;;4993687;28;20036;-77
2022/10/18 07:40:38;;;;;;;0.20;0.20;;;14.90;99.90;;;;;;4992405;28;20475;-77
2022/10/18 07:43:03;;;;;;;0.20;0.20;;;15.10;99.90;;;;;;4992301;28;20030;-77
2022/10/18 07:45:30;;;;;;;0.75;0.40;;;15.30;99.90;;;;;;4975714;28;20034;-77
2022/10/18 07:47:57;;;;;;;0.30;0.30;;;15.30;99.90;;;;;;4993473;28;20030;-77
2022/10/18 07:50:22;;;;;;;0.20;0.20;;;15.40;99.90;;;;;;4975989;28;20117;-77
2022/10/18 07:52:48;;;;;;;0.43;0.28;;;15.50;99.90;;;;;;4975900;28;20113;-77
2022/10/18 07:55:14;;;;;;;0.20;0.20;;;15.50;99.90;;;;;;4992981;28;20514;-77
2022/10/18 07:57:40;;;;;;;0.50;0.50;;;15.60;99.90;;;;;;4993453;28;20027;-77
2022/10/18 08:00:07;;;;;;;0.10;0.10;;;15.60;99.90;;;;;;4993245;28;20509;-77
2022/10/18 08:02:33;;;;;;;0.10;0.10;;;15.80;99.90;;;;;;4975877;28;20080;-77
2022/10/18 08:04:59;;;;;;;0.60;0.28;;;15.80;99.90;;;;;;4975467;28;20085;-77
2022/10/18 08:07:25;;;;;;;0.38;0.20;;;15.90;99.90;;;;;;4993586;28;20475;-77
2022/10/18 08:09:51;;;;;;;0.15;0.15;;;16.10;99.90;;;;;;4975672;28;20081;-77
2022/10/18 08:12:17;;;;;;;0.10;0.10;;;16.20;99.90;;;;;;4975459;28;20494;-77
2022/10/18 08:14:43;;;;;;;0.75;0.75;;;16.40;99.90;;;;;;4991952;28;20364;-77
2022/10/18 08:17:09;;;;;;;2.92;0.90;;;16.60;99.90;;;;;;4975575;28;20080;-77
2022/10/18 08:19:35;;;;;;;0.10;0.10;;;16.70;99.90;;;;;;4981233;28;20382;-77
2022/10/18 08:22:00;;;;;;;0.38;0.22;;;16.90;99.90;;;;;;4990901;28;20029;-77
2022/10/18 08:24:26;;;;;;;0.10;0.10;;;16.90;99.90;;;;;;4994317;28;20026;-76
2022/10/18 08:26:52;;;;;;;0.22;0.22;;;17.00;99.90;;;;;;4976928;28;20034;-80
2022/10/18 08:29:17;;;;;;;0.10;0.10;;;17.10;99.90;;;;;;4975751;28;20030;-77
2022/10/18 08:31:43;;;;;;;0.10;0.10;;;17.10;99.90;;;;;;4992727;28;20034;-77
2022/10/18 08:34:09;;;;;;;0.10;0.10;;;17.20;99.90;;;;;;4991985;28;20038;-77
2022/10/18 08:36:35;;;;;;;0.30;0.30;;;17.10;99.90;;;;;;4974691;28;20034;-77
2022/10/18 08:39:02;;;;;;;0.10;0.10;;;17.10;99.90;;;;;;4990036;28;20533;-76
2022/10/18 08:41:36;;;;;;;0.10;0.10;;;17.00;99.90;;;;;;4997473;28;20029;-77
2022/10/18 08:44:26;;;;;;;0.10;0.10;;;17.00;99.90;;;;;;5002154;28;20018;-77
2022/10/18 08:47:18;;;;;;;0.10;0.10;;;16.90;99.90;;;;;;5012457;28;20018;-77
2022/10/18 08:49:46;;;;;;;;;;;16.90;99.90;;;;;;4939658;28;20031;-77
2022/10/18 08:52:49;;;;;;;0.10;0.10;;;16.90;99.90;;;;;;4956903;28;19906;-77
2022/10/18 08:55:22;;;;;;;0.00;0.00;;;16.90;99.90;;;;;;4993934;28;20030;-77
2022/10/18 08:57:49;;;;;;;0.10;0.10;;;16.90;99.90;;;;;;5012245;28;20475;-77
2022/10/18 09:00:15;;;;;;;0.00;0.00;;;17.00;99.90;;;;;;4978036;28;20049;-77
2022/10/18 09:03:13;;;;;;;0.98;0.93;;;17.20;99.90;;;;;;5012143;28;20056;-77
2022/10/18 09:05:49;;;;;;;0.10;0.10;;;17.50;99.90;;;;;;4993966;28;20030;-77
2022/10/18 09:08:33;;;;;;;0.10;0.10;;;17.80;99.90;;;;;;4994243;28;20394;-77
2022/10/18 09:10:58;;;;;;;0.10;0.10;;;18.00;99.90;;;;;;4994583;28;20061;-77
2022/10/18 09:13:49;;;;;;;0.10;0.10;;;18.20;99.90;;;;;;4994391;28;20478;-77
2022/10/18 09:16:25;;;;;;;0.10;0.10;;;18.30;99.90;;;;;;4994723;28;20026;-78
2022/10/18 09:19:09;;;;;;;2.80;2.30;;;18.40;99.90;;;;;;4995276;28;20367;-77
2022/10/18 09:21:51;;;;;;;0.10;0.10;;;18.70;99.90;;;;;;5012063;28;20029;-77
2022/10/18 09:24:57;;;;;;;0.20;0.20;;;19.00;99.90;;;;;;5011948;28;20036;-77
2022/10/18 09:27:34;;;;;;;0.10;0.10;;;19.40;99.90;;;;;;4978200;28;20029;-77
2022/10/18 09:30:36;;;;;;;0.20;0.20;;;19.80;99.90;;;;;;4994531;28;20056;-77
2022/10/18 09:33:19;;;;;;;0.00;0.00;;;20.60;99.90;;;;;;4978143;28;20092;-77
2022/10/18 09:35:56;;;;;;;1.25;1.15;;;20.90;99.90;;;;;;4994013;28;20490;-77
2022/10/18 09:38:29;;;;;;;0.98;0.57;;;21.50;98.20;;;;;;5011688;28;20071;-76
2022/10/18 09:41:06;;;;;;;0.10;0.10;;;21.60;95.10;;;;;;4994141;28;20030;-76
2022/10/18 09:43:49;;;;;;;0.20;0.20;;;22.10;93.20;;;;;;4993948;28;20485;-77
2022/10/18 09:46:17;;;;;;;0.10;0.10;;;22.50;90.00;;;;;;4995848;28;20084;-77
2022/10/18 09:48:55;;;;;;;0.17;0.17;;;22.70;88.80;;;;;;5015281;28;20105;-76
2022/10/18 09:51:32;;;;;;;0.60;0.60;;;22.50;85.40;;;;;;5015231;28;20034;-76
2022/10/18 09:54:00;;;;;;;1.45;0.32;;;23.00;83.40;;;;;;4997390;28;20112;-77
2022/10/18 09:56:36;;;;;;;0.20;0.20;;;23.10;81.80;;;;;;4997269;28;20099;-76
2022/10/18 09:59:02;;;;;;;0.00;0.00;;;23.20;79.30;;;;;;5015088;28;20072;-77
2022/10/18 10:01:30;;;;;;;0.05;0.05;;;22.60;80.90;;;;;;5015057;28;20036;-76
2022/10/18 10:03:56;;;;;;;0.10;0.10;;;22.10;82.00;;;;;;4997523;28;20117;-76
2022/10/18 10:06:30;;;;;;;0.00;0.00;;;21.70;83.80;;;;;;5014431;28;20104;-76
2022/10/18 10:09:13;;;;;;;0.00;0.00;;;21.70;85.30;;;;;;4997643;28;20057;-76
2022/10/18 10:11:45;;;;;;;0.15;0.15;;;21.80;85.50;;;;;;4997338;28;20448;-76
2022/10/18 10:14:24;;;;;;;0.85;0.85;;;22.50;84.30;;;;;;4997244;28;20080;-76
2022/10/18 10:16:51;;;;;;;4.25;1.67;;;22.80;79.80;;;;;;5014687;28;20022;-77
2022/10/18 10:19:22;;;;;;;0.00;0.00;;;23.10;80.50;;;;;;5014742;28;20068;-77
2022/10/18 10:21:51;;;;;;;0.10;0.10;;;22.80;80.90;;;;;;5014845;28;20036;-77
2022/10/18 10:24:22;;;;;;;0.50;0.50;;;22.50;80.60;;;;;;4997087;28;20446;-76
2022/10/18 10:26:48;;;;;;;7.07;1.42;;;22.20;81.60;;;;;;5014305;28;20092;-75
2022/10/18 10:29:45;;;;;;;0.10;0.10;;;21.90;83.50;;;;;;5014436;28;20458;-75
2022/10/18 10:32:13;;;;;;;0.10;0.10;;;21.70;84.10;;;;;;5014688;28;20602;-75
2022/10/18 10:34:40;;;;;;;0.00;0.00;;;21.60;86.00;;;;;;5014606;28;20095;-75
2022/10/18 10:37:32;;;;;;;0.00;0.00;;;21.60;85.60;;;;;;5014662;28;20018;-75
2022/10/18 10:40:19;;;;;;;0.93;0.90;;;21.60;86.20;;;;;;5014484;28;20413;-75
2022/10/18 10:43:15;;;;;;;0.20;0.20;;;21.50;86.70;;;;;;5014525;28;20532;-75
2022/10/18 10:45:54;;;;;;;0.20;0.20;;;21.40;87.20;;;;;;5014865;28;20382;-75
2022/10/18 10:48:20;;;;;;;0.08;0.08;;;21.40;88.00;;;;;;5014360;28;20025;-75
2022/10/18 10:50:50;;;;;;;0.55;0.55;;;21.60;87.30;;;;;;5014238;28;20075;-75
2022/10/18 10:53:35;;;;;;;0.38;0.38;;;21.90;86.60;;;;;;4996714;28;20113;-75
2022/10/18 10:56:03;;;;;;;0.10;0.10;;;22.10;86.70;;;;;;4995856;28;20026;-75
2022/10/18 10:58:34;;;;;;;1.63;1.05;;;22.60;84.40;;;;;;5014012;28;20109;-76
2022/10/18 11:01:20;;;;;;;0.00;0.00;;;22.60;83.50;;;;;;5014239;28;20026;-76
2022/10/18 11:03:48;;;;;;;0.30;0.20;;;23.00;83.10;;;;;;5013936;28;20050;-76
2022/10/18 11:06:50;;;;;;;0.10;0.10;;;23.40;81.30;;;;;;5013543;28;20152;-75
2022/10/18 11:09:32;;;;;;;0.00;0.00;;;23.80;79.10;;;;;;5013877;28;20033;-76
2022/10/18 11:12:21;;;;;;;;;;;23.90;78.00;;;;;;5014240;28;20493;-76
2022/10/18 11:14:54;;;;;;;1.02;1.02;;;23.90;78.10;;;;;;4985587;28;19960;-76
2022/10/18 11:17:31;;;;;;;9.20;0.63;;;23.60;78.40;;;;;;4995977;28;20486;-75
2022/10/18 11:20:08;;;;;;;2.80;1.17;;;23.10;78.70;;;;;;4996201;28;20024;-75
2022/10/18 11:22:54;;;;;;;0.15;0.15;;;23.00;80.00;;;;;;5013635;28;20033;-76
2022/10/18 11:25:24;;;;;;;0.00;0.00;;;23.40;80.40;;;;;;4995833;28;20037;-76
2022/10/18 11:28:10;;;;;;;0.00;0.00;;;24.40;77.20;;;;;;5013516;28;20030;-76
2022/10/18 11:30:45;;;;;;;0.00;0.00;;;25.10;74.70;;;;;;5013433;28;20022;-76
2022/10/18 11:33:20;;;;;;;2.50;0.52;;;24.70;73.90;;;;;;5013451;28;20026;-76
2022/10/18 11:35:54;;;;;;;0.20;0.20;;;24.30;75.60;;;;;;5013277;28;20053;-75
2022/10/18 11:38:43;;;;;;;8.15;4.47;;;23.90;77.50;;;;;;5013585;28;20413;-76
2022/10/18 11:41:37;;;;;;;1.08;0.80;;;24.00;76.30;;;;;;4995552;28;20113;-76
2022/10/18 11:44:17;;;;;;;10.77;2.28;;;23.80;77.90;;;;;;5012970;28;20402;-76
2022/10/18 11:47:06;;;;;;;0.10;0.10;;;24.60;75.40;;;;;;5013023;28;20040;-76
2022/10/18 11:49:45;;;;;;;2.05;1.23;;;25.50;74.00;;;;;;5013325;28;20026;-76
2022/10/18 11:52:27;;;;;;;1.85;0.57;;;26.20;70.60;;;;;;5013481;28;20390;-76
2022/10/18 11:54:56;;;;;;;0.00;0.00;;;26.80;69.20;;;;;;5013086;28;20053;-76
2022/10/18 11:57:41;;;;;;;0.30;0.30;;;26.80;68.90;;;;;;5013082;28;20048;-77
2022/10/18 12:00:25;;;;;;;0.10;0.10;;;26.60;68.00;;;;;;4995593;28;20490;-76
2022/10/18 12:03:18;;;;;;;1.95;0.90;;;26.60;67.60;;;;;;5012867;28;20022;-76
2022/10/18 12:05:47;;;;;;;0.85;0.40;;;26.60;67.10;;;;;;5012693;28;20025;-76
2022/10/18 12:08:33;;;;;;;0.00;0.00;;;25.90;67.90;;;;;;5012488;28;20021;-76
2022/10/18 12:11:07;;;;;;;0.90;0.73;;;25.70;70.30;;;;;;5012932;28;20049;-76
2022/10/18 12:13:48;;;;;;;0.05;0.05;;;26.20;68.70;;;;;;4995295;28;20037;-77
2022/10/18 12:16:18;;;;;;;0.00;0.00;;;26.60;68.30;;;;;;4994760;28;20026;-77
2022/10/18 12:19:17;;;;;;;0.00;0.00;;;27.00;67.20;;;;;;4979684;28;20029;-77
2022/10/18 12:21:43;;;;;;;0.35;0.28;;;27.50;65.40;;;;;;4970822;28;20104;-77
2022/10/18 12:24:36;;;;;;;0.43;0.40;;;27.90;62.80;;;;;;4979268;28;20049;-75
2022/10/18 12:27:02;;;;;;;0.20;0.20;;;27.60;61.00;;;;;;4975775;28;20034;-75
2022/10/18 12:29:45;;;;;;;0.40;0.40;;;27.80;61.70;;;;;;4995151;28;20026;-75
2022/10/18 12:32:17;;;;;;;0.00;0.00;;;28.00;60.60;;;;;;4995005;28;20024;-75
2022/10/18 12:34:45;;;;;;;0.65;0.40;;;27.80;60.90;;;;;;5012231;28;20022;-75
2022/10/18 12:37:42;;;;;;;0.00;0.00;;;27.90;60.60;;;;;;5013651;28;20025;-75
2022/10/18 12:40:27;;;;;;;0.00;0.00;;;27.80;60.60;;;;;;5012669;28;20025;-75
2022/10/18 12:42:53;;;;;;;0.00;0.00;;;27.70;61.60;;;;;;4994721;28;20022;-75
2022/10/18 12:45:32;;;;;;;0.00;0.00;;;28.10;61.10;;;;;;4994998;28;20490;-74
2022/10/18 12:48:35;;;;;;;0.00;0.00;;;28.00;59.90;;;;;;4994690;28;20033;-69
2022/10/18 12:51:05;;;;;;;0.38;0.38;;;27.90;61.00;;;;;;5009253;28;20539;-69
2022/10/18 12:53:32;;;;;;;1.93;0.47;;;27.00;62.40;;;;;;5011936;28;20492;-69
2022/10/18 12:56:33;;;;;;;0.00;0.00;;;26.90;63.30;;;;;;5011619;28;20281;-69
2022/10/18 12:59:14;;;;;;;0.00;0.00;;;27.10;63.00;;;;;;4994221;28;20512;-69
2022/10/18 13:01:51;;;;;;;50.40;3.40;;;27.00;63.40;;;;;;5011869;28;20089;-69
2022/10/18 13:04:26;;;;;;;0.00;0.00;;;25.80;65.20;;;;;;5011642;28;20026;-75
2022/10/18 13:07:04;;;;;;;0.15;0.03;;;25.50;67.10;;;;;;4994163;28;20073;-75
2022/10/18 13:09:34;;;;;;;0.00;0.00;;;25.20;67.20;;;;;;4994523;28;20474;-75
2022/10/18 13:12:09;;;;;;;0.00;0.00;;;24.80;68.30;;;;;;4994487;28;20018;-75